createdAt,value
2019-02-05T00:00:13.884Z,0.00
2019-02-05T00:01:13.821Z,0.00
2019-02-05T00:02:13.787Z,0.00
2019-02-05T00:03:13.723Z,0.00
2019-02-05T00:04:13.672Z,0.00
2019-02-05T00:05:13.621Z,0.00
2019-02-05T00:06:13.580Z,0.00
2019-02-05T00:07:13.521Z,0.00
2019-02-05T00:08:13.471Z,0.00
2019-02-05T00:09:13.420Z,0.00
2019-02-05T00:10:13.382Z,0.00
2019-02-05T00:11:13.317Z,0.00
2019-02-05T00:12:13.266Z,0.00
2019-02-05T00:13:13.219Z,0.00
2019-02-05T00:14:13.172Z,0.00
2019-02-05T00:15:13.115Z,0.00
2019-02-05T00:16:13.072Z,0.00
2019-02-05T00:17:13.019Z,0.00
2019-02-05T00:18:12.967Z,0.00
2019-02-05T00:19:12.920Z,0.00
2019-02-05T00:20:12.868Z,0.00
2019-02-05T00:21:12.833Z,0.00
2019-02-05T00:22:12.765Z,0.00
2019-02-05T00:23:12.713Z,0.00
2019-02-05T00:24:12.667Z,0.00
2019-02-05T00:25:12.611Z,0.00
2019-02-05T00:26:12.561Z,0.00
2019-02-05T00:27:12.512Z,0.00
2019-02-05T00:28:12.469Z,0.00
2019-02-05T00:29:12.407Z,0.00
2019-02-05T00:30:12.364Z,0.00
2019-02-05T00:31:12.317Z,0.00
2019-02-05T00:32:12.254Z,0.00
2019-02-05T00:33:12.211Z,0.00
2019-02-05T00:34:12.156Z,0.00
2019-02-05T00:35:12.105Z,0.00
2019-02-05T00:36:12.053Z,0.00
2019-02-05T00:37:12.025Z,0.00
2019-02-05T00:38:11.955Z,0.00
2019-02-05T00:39:11.902Z,0.00
2019-02-05T00:40:11.853Z,0.00
2019-02-05T00:41:11.802Z,0.00
2019-02-05T00:42:11.749Z,0.00
2019-02-05T00:43:11.710Z,0.00
2019-02-05T00:44:11.650Z,0.00
2019-02-05T00:45:11.604Z,0.00
2019-02-05T00:46:11.553Z,0.00
2019-02-05T00:47:11.499Z,0.00
2019-02-05T00:48:11.447Z,0.00
2019-02-05T00:49:11.396Z,0.00
2019-02-05T00:50:11.401Z,0.00
2019-02-05T00:51:11.296Z,0.00
2019-02-05T00:52:11.247Z,0.00
2019-02-05T00:53:11.286Z,0.00
2019-02-05T00:54:11.143Z,0.00
2019-02-05T00:55:11.094Z,0.00
2019-02-05T00:56:17.685Z,0.00
2019-02-05T00:57:10.993Z,0.00
2019-02-05T00:58:10.948Z,0.00
2019-02-05T00:59:10.896Z,0.00
2019-02-05T01:00:10.839Z,0.00
2019-02-05T01:01:10.809Z,0.00
2019-02-05T01:02:10.740Z,0.00
2019-02-05T01:03:10.689Z,0.00
2019-02-05T01:04:10.694Z,0.00
2019-02-05T01:05:10.586Z,0.00
2019-02-05T01:06:10.547Z,0.00
2019-02-05T01:07:10.485Z,0.00
2019-02-05T01:08:10.442Z,0.00
2019-02-05T01:09:10.392Z,0.00
2019-02-05T01:10:10.336Z,0.00
2019-02-05T01:11:10.283Z,0.00
2019-02-05T01:12:10.240Z,0.00
2019-02-05T01:13:10.185Z,0.00
2019-02-05T01:14:10.131Z,0.00
2019-02-05T01:15:10.090Z,0.00
2019-02-05T01:16:10.030Z,0.00
2019-02-05T01:17:09.988Z,0.00
2019-02-05T01:18:09.931Z,0.00
2019-02-05T01:19:09.879Z,0.00
2019-02-05T01:20:09.828Z,0.00
2019-02-05T01:21:09.788Z,0.00
2019-02-05T01:22:09.727Z,0.00
2019-02-05T01:23:09.676Z,0.00
2019-02-05T01:24:09.633Z,0.00
2019-02-05T01:25:09.584Z,0.00
2019-02-05T01:26:09.523Z,0.00
2019-02-05T01:27:09.482Z,0.00
2019-02-05T01:28:09.423Z,0.00
2019-02-05T01:29:09.378Z,0.00
2019-02-05T01:30:09.345Z,0.00
2019-02-05T01:31:09.272Z,0.00
2019-02-05T01:32:09.221Z,0.00
2019-02-05T01:33:09.179Z,0.00
2019-02-05T01:34:09.118Z,0.00
2019-02-05T01:35:09.073Z,0.00
2019-02-05T01:36:09.024Z,0.00
2019-02-05T01:37:08.968Z,0.00
2019-02-05T01:38:08.923Z,0.00
2019-02-05T01:39:08.867Z,0.00
2019-02-05T01:40:08.817Z,0.00
2019-02-05T01:41:08.775Z,0.00
2019-02-05T01:42:08.723Z,0.00
2019-02-05T01:43:08.666Z,0.00
2019-02-05T01:44:08.613Z,0.00
2019-02-05T01:45:08.569Z,0.00
2019-02-05T01:46:08.516Z,0.00
2019-02-05T01:47:08.462Z,0.00
2019-02-05T01:48:08.413Z,0.00
2019-02-05T01:49:08.368Z,0.00
2019-02-05T01:50:08.312Z,0.00
2019-02-05T01:51:08.268Z,0.00
2019-02-05T01:52:08.214Z,0.00
2019-02-05T01:53:08.159Z,0.00
2019-02-05T01:54:08.116Z,0.00
2019-02-05T01:55:08.066Z,0.00
2019-02-05T01:56:08.016Z,0.00
2019-02-05T01:57:07.957Z,0.00
2019-02-05T01:58:07.911Z,0.00
2019-02-05T01:59:07.862Z,0.00
2019-02-05T02:00:07.807Z,0.00
2019-02-05T02:01:07.762Z,0.00
2019-02-05T02:02:07.713Z,0.00
2019-02-05T02:03:07.663Z,0.00
2019-02-05T02:04:07.607Z,0.00
2019-02-05T02:05:07.557Z,0.00
2019-02-05T02:06:07.507Z,0.00
2019-02-05T02:07:07.461Z,0.00
2019-02-05T02:08:07.404Z,0.00
2019-02-05T02:09:07.355Z,0.00
2019-02-05T02:10:07.299Z,0.00
2019-02-05T02:11:07.249Z,0.00
2019-02-05T02:12:07.201Z,0.00
2019-02-05T02:13:07.151Z,0.00
2019-02-05T02:14:07.098Z,0.00
2019-02-05T02:15:07.057Z,0.00
2019-02-05T02:16:07.010Z,0.00
2019-02-05T02:17:06.960Z,0.00
2019-02-05T02:18:06.910Z,0.00
2019-02-05T02:19:06.873Z,0.00
2019-02-05T02:20:06.801Z,0.00
2019-02-05T02:21:06.747Z,0.00
2019-02-05T02:22:06.694Z,0.00
2019-02-05T02:23:06.645Z,0.00
2019-02-05T02:24:06.597Z,0.00
2019-02-05T02:25:06.544Z,0.00
2019-02-05T02:26:06.490Z,0.00
2019-02-05T02:27:06.440Z,0.00
2019-02-05T02:28:06.390Z,0.00
2019-02-05T02:29:06.341Z,0.00
2019-02-05T02:30:06.304Z,0.00
2019-02-05T02:31:06.246Z,0.00
2019-02-05T02:32:06.194Z,0.00
2019-02-05T02:33:06.148Z,0.00
2019-02-05T02:34:06.088Z,0.00
2019-02-05T02:35:06.039Z,0.00
2019-02-05T02:36:05.989Z,0.00
2019-02-05T02:37:05.941Z,0.00
2019-02-05T02:38:05.893Z,0.00
2019-02-05T02:39:05.851Z,0.00
2019-02-05T02:40:05.788Z,0.00
2019-02-05T02:41:05.738Z,0.00
2019-02-05T02:42:05.691Z,0.00
2019-02-05T02:43:05.639Z,0.00
2019-02-05T02:44:05.584Z,0.00
2019-02-05T02:45:05.533Z,0.00
2019-02-05T02:46:05.483Z,0.00
2019-02-05T02:47:05.438Z,0.00
2019-02-05T02:48:05.391Z,0.00
2019-02-05T02:49:05.336Z,0.00
2019-02-05T02:50:05.279Z,0.00
2019-02-05T02:51:05.236Z,0.00
2019-02-05T02:52:05.180Z,0.00
2019-02-05T02:53:05.136Z,0.00
2019-02-05T02:54:05.081Z,0.00
2019-02-05T02:55:05.038Z,0.00
2019-02-05T02:56:05.001Z,0.00
2019-02-05T02:57:05.169Z,0.00
2019-02-05T02:58:04.901Z,0.00
2019-02-05T02:59:04.836Z,0.00
2019-02-05T03:00:04.781Z,0.00
2019-02-05T03:01:04.790Z,0.00
2019-02-05T03:02:04.677Z,0.00
2019-02-05T03:03:04.625Z,0.00
2019-02-05T03:04:04.579Z,0.00
2019-02-05T03:05:04.526Z,0.00
2019-02-05T03:06:04.481Z,0.00
2019-02-05T03:07:04.427Z,0.00
2019-02-05T03:08:04.378Z,0.00
2019-02-05T03:09:04.323Z,0.00
2019-02-05T03:10:04.290Z,0.00
2019-02-05T03:11:04.223Z,0.00
2019-02-05T03:12:04.179Z,0.00
2019-02-05T03:13:04.130Z,0.00
2019-02-05T03:14:04.076Z,0.00
2019-02-05T03:15:04.027Z,0.00
2019-02-05T03:16:03.978Z,0.00
2019-02-05T03:17:03.931Z,0.00
2019-02-05T03:18:03.882Z,0.00
2019-02-05T03:19:03.819Z,0.00
2019-02-05T03:20:03.770Z,0.00
2019-02-05T03:21:03.723Z,0.00
2019-02-05T03:22:03.667Z,0.00
2019-02-05T03:23:03.627Z,0.00
2019-02-05T03:24:03.573Z,0.00
2019-02-05T03:25:03.521Z,0.00
2019-02-05T03:26:03.476Z,0.00
2019-02-05T03:27:03.419Z,0.00
2019-02-05T03:28:03.374Z,0.00
2019-02-05T03:29:03.326Z,0.00
2019-02-05T03:30:03.290Z,0.00
2019-02-05T03:31:03.223Z,0.00
2019-02-05T03:32:03.177Z,0.00
2019-02-05T03:33:03.139Z,0.00
2019-02-05T03:34:03.066Z,0.00
2019-02-05T03:35:03.014Z,0.00
2019-02-05T03:36:02.962Z,0.00
2019-02-05T03:37:02.914Z,0.00
2019-02-05T03:38:02.868Z,0.00
2019-02-05T03:39:02.829Z,0.00
2019-02-05T03:40:02.772Z,0.00
2019-02-05T03:41:02.793Z,0.00
2019-02-05T03:42:02.664Z,0.00
2019-02-05T03:43:02.611Z,0.00
2019-02-05T03:44:02.563Z,0.00
2019-02-05T03:45:02.516Z,0.00
2019-02-05T03:46:02.459Z,0.00
2019-02-05T03:47:02.412Z,0.00
2019-02-05T03:48:02.362Z,0.00
2019-02-05T03:49:02.318Z,0.00
2019-02-05T03:50:02.259Z,0.00
2019-02-05T03:51:02.209Z,0.00
2019-02-05T03:52:02.159Z,0.00
2019-02-05T03:53:02.123Z,0.00
2019-02-05T03:54:02.060Z,0.00
2019-02-05T03:55:02.033Z,0.00
2019-02-05T03:56:01.961Z,0.00
2019-02-05T03:57:01.911Z,0.00
2019-02-05T03:58:01.855Z,0.00
2019-02-05T03:59:01.805Z,0.00
2019-02-05T04:00:01.779Z,0.00
2019-02-05T04:01:01.704Z,0.00
2019-02-05T04:02:01.653Z,0.00
2019-02-05T04:03:01.615Z,0.00
2019-02-05T04:04:01.553Z,0.00
2019-02-05T04:05:01.503Z,0.00
2019-02-05T04:06:01.455Z,0.00
2019-02-05T04:07:01.412Z,0.00
2019-02-05T04:08:01.359Z,0.00
2019-02-05T04:09:01.315Z,0.00
2019-02-05T04:10:01.262Z,0.00
2019-02-05T04:11:01.202Z,0.00
2019-02-05T04:12:01.672Z,0.00
2019-02-05T04:13:01.102Z,0.00
2019-02-05T04:14:01.052Z,0.00
2019-02-05T04:15:01.234Z,0.00
2019-02-05T04:16:00.953Z,0.00
2019-02-05T04:17:00.920Z,0.00
2019-02-05T04:18:00.850Z,0.00
2019-02-05T04:19:00.805Z,0.00
2019-02-05T04:20:00.754Z,0.00
2019-02-05T04:21:00.701Z,0.00
2019-02-05T04:22:00.660Z,0.00
2019-02-05T04:23:00.604Z,0.00
2019-02-05T04:24:00.546Z,0.00
2019-02-05T04:25:00.504Z,0.00
2019-02-05T04:26:00.447Z,0.00
2019-02-05T04:27:00.408Z,0.00
2019-02-05T04:28:00.345Z,0.00
2019-02-05T04:29:00.295Z,0.00
2019-02-05T04:30:00.247Z,0.00
2019-02-05T04:31:00.209Z,0.00
2019-02-05T04:32:00.145Z,0.00
2019-02-05T04:33:00.103Z,0.00
2019-02-05T04:34:00.041Z,0.00
2019-02-05T04:34:59.994Z,0.00
2019-02-05T04:35:59.942Z,0.00
2019-02-05T04:36:59.900Z,0.00
2019-02-05T04:37:59.847Z,0.00
2019-02-05T04:38:59.800Z,0.00
2019-02-05T04:39:59.741Z,0.00
2019-02-05T04:40:59.690Z,0.00
2019-02-05T04:41:59.638Z,0.00
2019-02-05T04:42:59.589Z,0.00
2019-02-05T04:43:59.540Z,0.00
2019-02-05T04:44:59.495Z,0.00
2019-02-05T04:45:59.439Z,0.00
2019-02-05T04:46:59.397Z,0.00
2019-02-05T04:47:59.338Z,0.00
2019-02-05T04:48:59.299Z,0.00
2019-02-05T04:49:59.246Z,0.00
2019-02-05T04:50:59.188Z,0.00
2019-02-05T04:51:59.146Z,0.00
2019-02-05T04:52:59.088Z,0.00
2019-02-05T04:53:59.037Z,0.00
2019-02-05T04:54:58.993Z,0.00
2019-02-05T04:55:58.937Z,0.00
2019-02-05T04:56:58.895Z,0.00
2019-02-05T04:58:01.488Z,0.00
2019-02-05T04:58:58.788Z,0.00
2019-02-05T04:59:58.740Z,0.00
2019-02-05T05:00:58.687Z,0.00
2019-02-05T05:01:58.633Z,0.00
2019-02-05T05:02:58.582Z,0.00
2019-02-05T05:03:58.538Z,0.00
2019-02-05T05:04:58.484Z,0.00
2019-02-05T05:05:58.438Z,0.00
2019-02-05T05:06:58.390Z,0.00
2019-02-05T05:07:58.331Z,0.00
2019-02-05T05:08:58.285Z,0.00
2019-02-05T05:09:58.249Z,0.00
2019-02-05T05:10:58.185Z,0.00
2019-02-05T05:11:58.139Z,0.00
2019-02-05T05:12:58.087Z,0.00
2019-02-05T05:13:58.036Z,0.00
2019-02-05T05:14:57.983Z,0.00
2019-02-05T05:15:57.941Z,0.00
2019-02-05T05:16:57.886Z,0.00
2019-02-05T05:17:57.831Z,0.00
2019-02-05T05:18:57.780Z,0.00
2019-02-05T05:19:57.734Z,0.00
2019-02-05T05:20:57.680Z,0.00
2019-02-05T05:21:57.631Z,0.00
2019-02-05T05:22:57.576Z,0.00
2019-02-05T05:23:57.532Z,0.00
2019-02-05T05:24:57.477Z,0.00
2019-02-05T05:25:57.432Z,0.00
2019-02-05T05:26:57.505Z,0.00
2019-02-05T05:28:09.463Z,0.00
2019-02-05T05:28:57.280Z,0.00
2019-02-05T05:29:57.231Z,0.00
2019-02-05T05:30:57.177Z,0.00
2019-02-05T05:31:57.131Z,0.00
2019-02-05T05:32:57.080Z,0.00
2019-02-05T05:33:57.032Z,0.00
2019-02-05T05:34:56.973Z,0.00
2019-02-05T05:35:56.955Z,0.00
2019-02-05T05:36:56.876Z,0.00
2019-02-05T05:37:56.840Z,0.00
2019-02-05T05:38:56.776Z,0.00
2019-02-05T05:39:56.732Z,0.00
2019-02-05T05:40:56.677Z,0.00
2019-02-05T05:41:56.627Z,0.00
2019-02-05T05:42:56.577Z,0.00
2019-02-05T05:43:56.529Z,0.00
2019-02-05T05:44:56.474Z,0.00
2019-02-05T05:45:56.422Z,0.00
2019-02-05T05:46:56.371Z,0.00
2019-02-05T05:47:56.332Z,0.00
2019-02-05T05:48:56.271Z,0.00
2019-02-05T05:49:56.219Z,0.00
2019-02-05T05:50:56.180Z,0.00
2019-02-05T05:51:56.129Z,0.00
2019-02-05T05:52:56.073Z,0.00
2019-02-05T05:53:56.024Z,0.00
2019-02-05T05:54:55.975Z,0.00
2019-02-05T05:55:55.922Z,0.00
2019-02-05T05:56:55.876Z,0.00
2019-02-05T05:57:55.819Z,0.00
2019-02-05T05:58:55.776Z,0.00
2019-02-05T05:59:55.811Z,0.00
2019-02-05T06:00:55.676Z,0.00
2019-02-05T06:01:55.622Z,0.00
2019-02-05T06:02:55.571Z,0.00
2019-02-05T06:03:55.521Z,0.00
2019-02-05T06:04:55.481Z,0.00
2019-02-05T06:05:55.436Z,0.00
2019-02-05T06:06:55.369Z,0.00
2019-02-05T06:07:55.321Z,0.00
2019-02-05T06:08:55.276Z,0.00
2019-02-05T06:09:55.233Z,0.00
2019-02-05T06:10:55.179Z,0.00
2019-02-05T06:11:55.124Z,0.00
2019-02-05T06:12:55.073Z,0.00
2019-02-05T06:13:55.017Z,0.00
2019-02-05T06:14:54.971Z,0.00
2019-02-05T06:15:54.923Z,0.00
2019-02-05T06:16:54.877Z,0.00
2019-02-05T06:17:54.834Z,0.00
2019-02-05T06:18:54.772Z,0.00
2019-02-05T06:19:54.734Z,0.00
2019-02-05T06:20:54.673Z,0.00
2019-02-05T06:21:54.621Z,0.00
2019-02-05T06:22:54.566Z,0.00
2019-02-05T06:23:54.520Z,0.00
2019-02-05T06:24:54.464Z,0.00
2019-02-05T06:25:54.432Z,0.00
2019-02-05T06:26:54.363Z,0.00
2019-02-05T06:27:54.320Z,0.00
2019-02-05T06:28:54.264Z,0.00
2019-02-05T06:29:54.232Z,0.00
2019-02-05T06:30:54.174Z,0.00
2019-02-05T06:31:54.122Z,0.00
2019-02-05T06:32:54.070Z,0.00
2019-02-05T06:33:54.012Z,0.00
2019-02-05T06:34:55.737Z,0.00
2019-02-05T06:35:53.922Z,0.00
2019-02-05T06:36:53.892Z,0.00
2019-02-05T06:37:53.813Z,0.00
2019-02-05T06:38:53.765Z,0.00
2019-02-05T06:39:53.720Z,0.00
2019-02-05T06:40:53.680Z,0.00
2019-02-05T06:41:53.613Z,0.00
2019-02-05T06:42:53.569Z,0.00
2019-02-05T06:43:53.512Z,0.00
2019-02-05T06:44:53.462Z,0.00
2019-02-05T06:45:53.411Z,0.00
2019-02-05T06:46:53.365Z,0.00
2019-02-05T06:47:53.314Z,4.00
2019-02-05T06:48:53.265Z,4.00
2019-02-05T06:49:53.211Z,0.00
2019-02-05T06:50:53.162Z,0.00
2019-02-05T06:51:53.111Z,4.00
2019-02-05T06:52:53.061Z,4.00
2019-02-05T06:53:53.017Z,0.00
2019-02-05T06:54:52.966Z,8.00
2019-02-05T06:55:52.936Z,4.00
2019-02-05T06:56:52.893Z,8.00
2019-02-05T06:57:52.812Z,8.00
2019-02-05T06:58:52.763Z,8.00
2019-02-05T06:59:52.710Z,8.00
2019-02-05T07:00:52.659Z,12.00
2019-02-05T07:01:52.615Z,12.00
2019-02-05T07:02:53.245Z,12.00
2019-02-05T07:03:52.507Z,12.00
2019-02-05T07:04:52.465Z,16.00
2019-02-05T07:05:52.406Z,16.00
2019-02-05T07:06:52.362Z,16.00
2019-02-05T07:07:52.313Z,20.00
2019-02-05T07:08:52.259Z,20.00
2019-02-05T07:09:52.233Z,20.00
2019-02-05T07:10:52.156Z,24.00
2019-02-05T07:11:52.113Z,24.00
2019-02-05T07:12:52.055Z,28.00
2019-02-05T07:13:52.012Z,28.00
2019-02-05T07:14:51.964Z,28.00
2019-02-05T07:15:51.915Z,32.00
2019-02-05T07:16:51.855Z,32.00
2019-02-05T07:17:51.812Z,36.00
2019-02-05T07:18:51.762Z,36.00
2019-02-05T07:19:51.704Z,36.00
2019-02-05T07:20:51.664Z,40.00
2019-02-05T07:21:51.611Z,44.00
2019-02-05T07:22:51.561Z,44.00
2019-02-05T07:23:51.515Z,44.00
2019-02-05T07:24:51.459Z,44.00
2019-02-05T07:25:51.405Z,48.00
2019-02-05T07:26:51.362Z,56.00
2019-02-05T07:27:51.305Z,56.00
2019-02-05T07:28:59.983Z,60.00
2019-02-05T07:29:51.210Z,64.00
2019-02-05T07:30:51.159Z,64.00
2019-02-05T07:31:51.109Z,64.00
2019-02-05T07:32:51.052Z,72.00
2019-02-05T07:33:51.010Z,72.00
2019-02-05T07:34:50.965Z,76.00
2019-02-05T07:35:55.956Z,84.00
2019-02-05T07:36:50.859Z,88.00
2019-02-05T07:37:50.806Z,88.00
2019-02-05T07:38:50.772Z,84.00
2019-02-05T07:39:50.704Z,88.00
2019-02-05T07:40:50.660Z,96.00
2019-02-05T07:41:50.604Z,108.00
2019-02-05T07:42:50.559Z,120.00
2019-02-05T07:43:50.503Z,128.00
2019-02-05T07:44:50.461Z,132.00
2019-02-05T07:45:50.403Z,132.00
2019-02-05T07:46:50.359Z,140.00
2019-02-05T07:47:50.305Z,144.00
2019-02-05T07:48:50.253Z,148.00
2019-02-05T07:49:50.201Z,148.00
2019-02-05T07:50:50.153Z,156.00
2019-02-05T07:51:50.110Z,172.00
2019-02-05T07:52:50.052Z,164.00
2019-02-05T07:53:50.009Z,176.00
2019-02-05T07:54:49.953Z,192.00
2019-02-05T07:55:49.913Z,200.00
2019-02-05T07:56:49.855Z,224.00
2019-02-05T07:57:49.800Z,224.00
2019-02-05T07:58:49.760Z,208.00
2019-02-05T07:59:49.704Z,212.00
2019-02-05T08:00:49.654Z,212.00
2019-02-05T08:01:49.604Z,204.00
2019-02-05T08:02:49.575Z,208.00
2019-02-05T08:03:49.507Z,196.00
2019-02-05T08:04:49.450Z,184.00
2019-02-05T08:05:49.407Z,188.00
2019-02-05T08:06:49.367Z,188.00
2019-02-05T08:07:49.307Z,188.00
2019-02-05T08:08:49.250Z,212.00
2019-02-05T08:09:49.200Z,204.00
2019-02-05T08:10:49.149Z,228.00
2019-02-05T08:11:49.110Z,228.00
2019-02-05T08:12:49.053Z,232.00
2019-02-05T08:13:49.003Z,260.00
2019-02-05T08:14:48.949Z,264.00
2019-02-05T08:15:48.904Z,264.00
2019-02-05T08:16:48.853Z,296.00
2019-02-05T08:17:48.821Z,288.00
2019-02-05T08:18:48.791Z,308.00
2019-02-05T08:19:48.706Z,292.00
2019-02-05T08:20:48.655Z,316.00
2019-02-05T08:21:48.611Z,344.00
2019-02-05T08:22:48.554Z,328.00
2019-02-05T08:23:48.511Z,348.00
2019-02-05T08:24:48.455Z,356.00
2019-02-05T08:25:48.400Z,356.00
2019-02-05T08:26:48.353Z,368.00
2019-02-05T08:27:48.318Z,416.00
2019-02-05T08:28:48.259Z,412.00
2019-02-05T08:29:48.201Z,384.00
2019-02-05T08:30:48.153Z,448.00
2019-02-05T08:31:48.102Z,460.00
2019-02-05T08:32:48.057Z,508.00
2019-02-05T08:33:48.012Z,592.00
2019-02-05T08:34:47.952Z,560.00
2019-02-05T08:35:47.906Z,564.00
2019-02-05T08:36:47.867Z,624.00
2019-02-05T08:37:47.810Z,656.00
2019-02-05T08:38:47.767Z,764.00
2019-02-05T08:39:47.783Z,640.00
2019-02-05T08:40:47.655Z,660.00
2019-02-05T08:41:47.738Z,668.00
2019-02-05T08:42:47.608Z,808.00
2019-02-05T08:43:47.502Z,848.00
2019-02-05T08:44:47.453Z,804.00
2019-02-05T08:45:56.419Z,752.00
2019-02-05T08:46:47.369Z,792.00
2019-02-05T08:47:47.316Z,796.00
2019-02-05T08:48:47.262Z,804.00
2019-02-05T08:49:47.206Z,676.00
2019-02-05T08:50:47.163Z,616.00
2019-02-05T08:51:47.102Z,616.00
2019-02-05T08:52:47.054Z,704.00
2019-02-05T08:53:47.003Z,704.00
2019-02-05T08:54:46.965Z,820.00
2019-02-05T08:55:46.908Z,760.00
2019-02-05T08:56:46.861Z,688.00
2019-02-05T08:57:46.831Z,764.00
2019-02-05T08:58:46.759Z,780.00
2019-02-05T08:59:46.716Z,900.00
2019-02-05T09:00:46.656Z,912.00
2019-02-05T09:01:46.605Z,820.00
2019-02-05T09:02:46.555Z,844.00
2019-02-05T09:03:46.521Z,736.00
2019-02-05T09:04:46.456Z,728.00
2019-02-05T09:05:46.408Z,744.00
2019-02-05T09:06:46.360Z,744.00
2019-02-05T09:07:46.307Z,864.00
2019-02-05T09:08:46.259Z,1032.00
2019-02-05T09:09:46.210Z,972.00
2019-02-05T09:10:46.162Z,828.00
2019-02-05T09:11:46.115Z,732.00
2019-02-05T09:12:46.058Z,704.00
2019-02-05T09:13:46.017Z,644.00
2019-02-05T09:14:45.966Z,552.00
2019-02-05T09:15:45.917Z,616.00
2019-02-05T09:16:45.861Z,660.00
2019-02-05T09:17:45.811Z,588.00
2019-02-05T09:18:45.763Z,632.00
2019-02-05T09:19:45.712Z,756.00
2019-02-05T09:20:45.671Z,804.00
2019-02-05T09:21:45.612Z,872.00
2019-02-05T09:22:45.567Z,1124.00
2019-02-05T09:23:45.516Z,1356.00
2019-02-05T09:24:45.464Z,1436.00
2019-02-05T09:25:45.426Z,1280.00
2019-02-05T09:26:45.370Z,1156.00
2019-02-05T09:27:45.314Z,1148.00
2019-02-05T09:28:45.268Z,1072.00
2019-02-05T09:29:45.218Z,1176.00
2019-02-05T09:30:45.173Z,1404.00
2019-02-05T09:31:45.118Z,1288.00
2019-02-05T09:32:45.077Z,1124.00
2019-02-05T09:33:45.087Z,936.00
2019-02-05T09:34:44.971Z,928.00
2019-02-05T09:35:44.921Z,1048.00
2019-02-05T09:36:44.885Z,1020.00
2019-02-05T09:37:44.837Z,972.00
2019-02-05T09:38:44.881Z,984.00
2019-02-05T09:39:44.739Z,944.00
2019-02-05T09:40:44.677Z,1036.00
2019-02-05T09:41:44.630Z,1032.00
2019-02-05T09:42:44.581Z,1072.00
2019-02-05T09:43:44.525Z,1048.00
2019-02-05T09:44:44.482Z,956.00
2019-02-05T09:45:44.426Z,868.00
2019-02-05T09:46:44.377Z,868.00
2019-02-05T09:47:44.329Z,908.00
2019-02-05T09:48:44.278Z,964.00
2019-02-05T09:49:44.228Z,1088.00
2019-02-05T09:50:45.240Z,1172.00
2019-02-05T09:51:44.177Z,1272.00
2019-02-05T09:52:44.083Z,1272.00
2019-02-05T09:53:44.028Z,1192.00
2019-02-05T09:54:43.981Z,1184.00
2019-02-05T09:55:43.933Z,1104.00
2019-02-05T09:56:43.885Z,1088.00
2019-02-05T09:57:43.833Z,1092.00
2019-02-05T09:58:43.787Z,1088.00
2019-02-05T09:59:45.457Z,1124.00
2019-02-05T10:00:43.698Z,1048.00
2019-02-05T10:01:43.640Z,984.00
2019-02-05T10:02:43.586Z,972.00
2019-02-05T10:03:43.536Z,1004.00
2019-02-05T10:04:43.502Z,996.00
2019-02-05T10:05:43.446Z,1092.00
2019-02-05T10:06:43.390Z,1132.00
2019-02-05T10:07:43.339Z,1096.00
2019-02-05T10:08:43.299Z,1020.00
2019-02-05T10:09:43.244Z,1056.00
2019-02-05T10:10:43.190Z,1032.00
2019-02-05T10:11:43.147Z,1004.00
2019-02-05T10:12:43.092Z,976.00
2019-02-05T10:13:43.052Z,1052.00
2019-02-05T10:14:42.991Z,1060.00
2019-02-05T10:15:42.952Z,1068.00
2019-02-05T10:16:42.917Z,1020.00
2019-02-05T10:17:42.846Z,1008.00
2019-02-05T10:18:45.721Z,1020.00
2019-02-05T10:19:42.745Z,964.00
2019-02-05T10:20:42.698Z,1044.00
2019-02-05T10:21:42.649Z,1120.00
2019-02-05T10:22:42.599Z,1152.00
2019-02-05T10:23:42.547Z,1132.00
2019-02-05T10:24:42.499Z,1096.00
2019-02-05T10:25:42.448Z,1112.00
2019-02-05T10:26:42.400Z,1008.00
2019-02-05T10:27:42.361Z,968.00
2019-02-05T10:28:42.309Z,1020.00
2019-02-05T10:29:42.254Z,1100.00
2019-02-05T10:30:42.210Z,1120.00
2019-02-05T10:31:42.167Z,1212.00
2019-02-05T10:32:42.105Z,1236.00
2019-02-05T10:33:42.063Z,1308.00
2019-02-05T10:34:42.010Z,1280.00
2019-02-05T10:35:41.961Z,1260.00
2019-02-05T10:36:41.909Z,1332.00
2019-02-05T10:37:41.858Z,1360.00
2019-02-05T10:38:41.811Z,1376.00
2019-02-05T10:39:41.764Z,1344.00
2019-02-05T10:40:41.777Z,1340.00
2019-02-05T10:41:41.663Z,1336.00
2019-02-05T10:42:44.104Z,1260.00
2019-02-05T10:43:41.566Z,1220.00
2019-02-05T10:44:41.517Z,1124.00
2019-02-05T10:45:41.466Z,1044.00
2019-02-05T10:46:41.423Z,1036.00
2019-02-05T10:47:41.367Z,984.00
2019-02-05T10:48:41.317Z,1072.00
2019-02-05T10:49:41.268Z,1232.00
2019-02-05T10:50:41.224Z,1396.00
2019-02-05T10:51:41.177Z,1220.00
2019-02-05T10:52:41.145Z,1124.00
2019-02-05T10:53:41.076Z,1216.00
2019-02-05T10:54:41.024Z,1308.00
2019-02-05T10:55:40.973Z,1332.00
2019-02-05T10:56:40.931Z,1460.00
2019-02-05T10:57:40.877Z,1784.00
2019-02-05T10:58:40.831Z,1772.00
2019-02-05T10:59:40.777Z,1584.00
2019-02-05T11:00:40.730Z,1392.00
2019-02-05T11:01:40.679Z,1320.00
2019-02-05T11:02:40.636Z,1300.00
2019-02-05T11:03:40.580Z,1300.00
2019-02-05T11:04:40.529Z,1168.00
2019-02-05T11:05:40.484Z,1016.00
2019-02-05T11:06:40.432Z,1008.00
2019-02-05T11:07:40.388Z,972.00
2019-02-05T11:08:40.333Z,1004.00
2019-02-05T11:09:40.285Z,1020.00
2019-02-05T11:10:40.233Z,984.00
2019-02-05T11:11:40.186Z,980.00
2019-02-05T11:12:40.142Z,968.00
2019-02-05T11:13:40.096Z,1180.00
2019-02-05T11:14:40.037Z,1276.00
2019-02-05T11:15:40.002Z,1308.00
2019-02-05T11:16:39.951Z,1368.00
2019-02-05T11:17:39.897Z,1524.00
2019-02-05T11:18:39.841Z,1684.00
2019-02-05T11:19:39.790Z,1488.00
2019-02-05T11:20:39.751Z,1412.00
2019-02-05T11:21:39.700Z,1596.00
2019-02-05T11:22:39.645Z,1748.00
2019-02-05T11:23:39.599Z,1684.00
2019-02-05T11:24:39.543Z,1636.00
2019-02-05T11:25:39.493Z,1612.00
2019-02-05T11:26:39.446Z,1840.00
2019-02-05T11:27:39.401Z,1700.00
2019-02-05T11:28:39.354Z,1604.00
2019-02-05T11:29:39.296Z,1604.00
2019-02-05T11:30:39.256Z,1824.00
2019-02-05T11:31:39.199Z,2076.00
2019-02-05T11:32:39.150Z,1612.00
2019-02-05T11:33:39.109Z,1744.00
2019-02-05T11:34:39.065Z,1952.00
2019-02-05T11:35:39.013Z,1784.00
2019-02-05T11:36:38.954Z,1848.00
2019-02-05T11:37:38.911Z,1680.00
2019-02-05T11:38:38.858Z,1492.00
2019-02-05T11:39:38.811Z,1504.00
2019-02-05T11:40:38.766Z,1440.00
2019-02-05T11:41:38.712Z,1344.00
2019-02-05T11:42:38.667Z,1544.00
2019-02-05T11:43:38.612Z,1596.00
2019-02-05T11:44:38.562Z,1484.00
2019-02-05T11:45:38.521Z,1472.00
2019-02-05T11:46:38.471Z,1516.00
2019-02-05T11:47:38.417Z,1392.00
2019-02-05T11:48:38.371Z,1272.00
2019-02-05T11:49:38.323Z,1244.00
2019-02-05T11:50:38.270Z,1428.00
2019-02-05T11:51:38.218Z,1488.00
2019-02-05T11:52:38.177Z,1408.00
2019-02-05T11:53:38.123Z,1232.00
2019-02-05T11:54:38.072Z,1060.00
2019-02-05T11:55:38.023Z,1192.00
2019-02-05T11:56:37.973Z,1204.00
2019-02-05T11:57:37.933Z,1176.00
2019-02-05T11:58:37.883Z,1168.00
2019-02-05T11:59:37.842Z,1236.00
2019-02-05T12:00:37.790Z,1508.00
2019-02-05T12:01:39.214Z,1752.00
2019-02-05T12:02:37.687Z,1892.00
2019-02-05T12:03:37.638Z,1668.00
2019-02-05T12:04:37.591Z,1412.00
2019-02-05T12:05:37.535Z,1160.00
2019-02-05T12:06:37.492Z,1208.00
2019-02-05T12:07:37.448Z,1320.00
2019-02-05T12:08:37.387Z,1316.00
2019-02-05T12:09:37.340Z,1204.00
2019-02-05T12:10:37.289Z,1072.00
2019-02-05T12:11:37.240Z,1144.00
2019-02-05T12:12:37.194Z,1292.00
2019-02-05T12:13:37.143Z,1376.00
2019-02-05T12:14:37.093Z,1404.00
2019-02-05T12:15:37.049Z,1276.00
2019-02-05T12:16:36.998Z,1204.00
2019-02-05T12:17:36.950Z,1056.00
2019-02-05T12:18:36.898Z,980.00
2019-02-05T12:19:36.848Z,1020.00
2019-02-05T12:20:36.832Z,1276.00
2019-02-05T12:21:36.800Z,1388.00
2019-02-05T12:22:36.702Z,1260.00
2019-02-05T12:23:36.660Z,1356.00
2019-02-05T12:24:36.606Z,1568.00
2019-02-05T12:25:36.563Z,1516.00
2019-02-05T12:26:36.510Z,1476.00
2019-02-05T12:27:36.461Z,1332.00
2019-02-05T12:28:36.417Z,1300.00
2019-02-05T12:29:36.366Z,1204.00
2019-02-05T12:30:44.431Z,1188.00
2019-02-05T12:31:36.275Z,1212.00
2019-02-05T12:32:36.215Z,1328.00
2019-02-05T12:33:36.166Z,1328.00
2019-02-05T12:34:36.122Z,1300.00
2019-02-05T12:35:36.068Z,1360.00
2019-02-05T12:36:36.024Z,1192.00
2019-02-05T12:37:35.976Z,1016.00
2019-02-05T12:38:35.920Z,924.00
2019-02-05T12:39:35.910Z,856.00
2019-02-05T12:40:35.833Z,852.00
2019-02-05T12:41:35.777Z,860.00
2019-02-05T12:42:35.730Z,876.00
2019-02-05T12:43:35.685Z,852.00
2019-02-05T12:44:35.636Z,820.00
2019-02-05T12:45:35.616Z,820.00
2019-02-05T12:46:35.544Z,792.00
2019-02-05T12:47:35.479Z,784.00
2019-02-05T12:48:35.429Z,736.00
2019-02-05T12:49:35.385Z,692.00